Orlando, FL

11:34 PM EST on February 21, 2017 (GMT -0500)
WFTV, Channel 9 | | Change Station
Active Advisory: Small Craft Advisory

Elev 92 ft 28.54 °N, 81.37 °W | Updated 9 seconds ago

Partly Cloudy
Partly Cloudy
67.1 °F
Feels Like 67.1 °F
N
3.5
Wind Variable Wind from SE
Gusts 7.0 mph

Today
High -- | Low -- °F
--% Chance of Precip.
Yesterday
High -- | Low -- °F
Precip. -- in
Pressure 29.95 in
Visibility 10.0 miles
Clouds Few 6500 ft
Dew Point 61 °F
Humidity 80%
Rainfall 0.00 in
Snow Depth Not available.
6:58 AM 6:20 PM
Waning Crescent, 20% visible
METAR KORL 220353Z AUTO 13007KT 10SM FEW065 19/16 A2994 RMK AO2 SLP141 T01940161
Pressure 29.95 in
Visibility 10.0 miles
Clouds Few 6500 ft
Dew Point 61 °F
Humidity 80%
Rainfall 0.00 in
Snow Depth Not available.
6:58 AM 6:20 PM
Waning Crescent, 20% visible
METAR KORL 220353Z AUTO 13007KT 10SM FEW065 19/16 A2994 RMK AO2 SLP141 T01940161

Get Your Daily Forecast Email!

Thanks for signing up!

Be on the lookout for a verification email in your inbox.

You'll start receiving the daily forecast at 8 AM.

×

10-Day Weather Forecast

Almanac

Astronomy

Feb. 21, 2017 Rise Set
Actual Time
Civil Twilight
Nautical Twilight
Astronomical Twilight
Moon
Length of Visible Light
Length of Day
Tomorrow will be .
, % of the Moon is Illuminated

Today's Extremes

State Highs State Lows

Community

WunderPhotos

Upload Photos

1,962,540 photos uploaded!

WunderBlog® & News

Nearby

Air Quality

  Air Quality AQ Index Pollutant
Not available.

Snow Depth

Station Depth Elevation

Earthquake Activity

City Distance Mag. Time & Date
Minimum magnitude displayed is 2.5.

Coastal Water Temperatures

Place Temperature

Stations

Nearby Weather Stations

Station Location Temp. Windchill Dew Point Humidity Wind Precip. Elev Updated Type
                   

Watches & Warnings

Small Craft Advisory
Issued: 3:17 PM EST Feb. 21, 2017 – National Weather Service

... Small Craft Advisory in effect from 4 am Wednesday to 4 PM EST
Thursday...

The National Weather Service in Melbourne has issued a Small
Craft Advisory, which is in effect from 4 am Wednesday to 4 PM
EST Thursday.

* Winds... winds will increase to abround 20 knots Wednesday
morning.

* Waves/seas... seas will build to 6 to 7 feet during Wednesday.

Precautionary/preparedness actions...

A Small Craft Advisory means that wind speeds of 20 to 33 knots
are expected to produce hazardous wave conditions to small craft.
Inexperienced mariners... especially those operating smaller
vessels should avoid navigating in these conditions.